sensor_id;sensor_type;location;lat;lon;timestamp;P1;durP1;ratioP1;P2;durP2;ratioP2
37097;SDS011;63608;49.572;12.348;2023-04-24T00:01:55;2.87;;;2.10;;
37097;SDS011;63608;49.572;12.348;2023-04-24T00:03:58;2.30;;;2.10;;
37097;SDS011;63608;49.572;12.348;2023-04-24T00:06:03;2.30;;;2.20;;
37097;SDS011;63608;49.572;12.348;2023-04-24T00:08:08;3.40;;;2.07;;
37097;SDS011;63608;49.572;12.348;2023-04-24T00:10:11;2.00;;;1.90;;
37097;SDS011;63608;49.572;12.348;2023-04-24T00:12:14;2.30;;;2.07;;
37097;SDS011;63608;49.572;12.348;2023-04-24T00:14:17;2.00;;;1.90;;
37097;SDS011;63608;49.572;12.348;2023-04-24T00:16:21;2.13;;;2.03;;
37097;SDS011;63608;49.572;12.348;2023-04-24T00:18:26;2.20;;;2.10;;
37097;SDS011;63608;49.572;12.348;2023-04-24T00:20:30;2.47;;;2.33;;
37097;SDS011;63608;49.572;12.348;2023-04-24T00:22:33;2.43;;;2.23;;
37097;SDS011;63608;49.572;12.348;2023-04-24T00:24:37;2.13;;;2.03;;
37097;SDS011;63608;49.572;12.348;2023-04-24T00:26:39;2.30;;;2.20;;
37097;SDS011;63608;49.572;12.348;2023-04-24T00:28:42;3.03;;;2.60;;
37097;SDS011;63608;49.572;12.348;2023-04-24T00:30:45;2.40;;;2.30;;
37097;SDS011;63608;49.572;12.348;2023-04-24T00:32:48;3.50;;;2.30;;
37097;SDS011;63608;49.572;12.348;2023-04-24T00:34:54;2.50;;;2.40;;
37097;SDS011;63608;49.572;12.348;2023-04-24T00:36:57;2.03;;;1.93;;
37097;SDS011;63608;49.572;12.348;2023-04-24T00:39:01;2.67;;;2.50;;
37097;SDS011;63608;49.572;12.348;2023-04-24T00:41:04;2.80;;;2.60;;
37097;SDS011;63608;49.572;12.348;2023-04-24T00:43:08;2.40;;;2.30;;
37097;SDS011;63608;49.572;12.348;2023-04-24T00:45:12;2.57;;;2.47;;
37097;SDS011;63608;49.572;12.348;2023-04-24T00:47:16;2.43;;;2.33;;
37097;SDS011;63608;49.572;12.348;2023-04-24T00:49:22;2.43;;;2.33;;
37097;SDS011;63608;49.572;12.348;2023-04-24T00:51:26;4.97;;;2.03;;
37097;SDS011;63608;49.572;12.348;2023-04-24T00:53:31;2.20;;;1.93;;
37097;SDS011;63608;49.572;12.348;2023-04-24T00:55:35;3.20;;;2.10;;
37097;SDS011;63608;49.572;12.348;2023-04-24T00:57:39;2.23;;;2.03;;
37097;SDS011;63608;49.572;12.348;2023-04-24T00:59:42;3.20;;;2.40;;
37097;SDS011;63608;49.572;12.348;2023-04-24T01:01:45;2.53;;;2.43;;
37097;SDS011;63608;49.572;12.348;2023-04-24T01:03:48;4.37;;;2.20;;
37097;SDS011;63608;49.572;12.348;2023-04-24T01:05:52;2.63;;;2.47;;
37097;SDS011;63608;49.572;12.348;2023-04-24T01:08:03;2.50;;;2.37;;
37097;SDS011;63608;49.572;12.348;2023-04-24T01:10:07;2.77;;;2.67;;
37097;SDS011;63608;49.572;12.348;2023-04-24T01:12:10;2.60;;;2.50;;
37097;SDS011;63608;49.572;12.348;2023-04-24T01:14:14;3.27;;;3.07;;
37097;SDS011;63608;49.572;12.348;2023-04-24T01:16:17;2.77;;;2.57;;
37097;SDS011;63608;49.572;12.348;2023-04-24T01:18:21;3.00;;;2.87;;
37097;SDS011;63608;49.572;12.348;2023-04-24T01:20:28;3.33;;;3.13;;
37097;SDS011;63608;49.572;12.348;2023-04-24T01:22:34;3.33;;;3.03;;
37097;SDS011;63608;49.572;12.348;2023-04-24T01:24:37;3.40;;;3.20;;
37097;SDS011;63608;49.572;12.348;2023-04-24T01:26:39;3.20;;;3.00;;
37097;SDS011;63608;49.572;12.348;2023-04-24T01:28:44;3.00;;;2.90;;
37097;SDS011;63608;49.572;12.348;2023-04-24T01:30:48;3.50;;;3.30;;
37097;SDS011;63608;49.572;12.348;2023-04-24T01:32:51;3.43;;;3.20;;
37097;SDS011;63608;49.572;12.348;2023-04-24T01:34:55;4.57;;;3.70;;
37097;SDS011;63608;49.572;12.348;2023-04-24T01:36:58;3.03;;;2.93;;
37097;SDS011;63608;49.572;12.348;2023-04-24T01:39:04;3.40;;;3.20;;
37097;SDS011;63608;49.572;12.348;2023-04-24T01:41:07;3.30;;;3.20;;
37097;SDS011;63608;49.572;12.348;2023-04-24T01:43:09;3.53;;;3.33;;
37097;SDS011;63608;49.572;12.348;2023-04-24T01:45:13;3.00;;;2.90;;
37097;SDS011;63608;49.572;12.348;2023-04-24T01:47:16;4.40;;;3.70;;
37097;SDS011;63608;49.572;12.348;2023-04-24T01:49:19;3.73;;;3.53;;
37097;SDS011;63608;49.572;12.348;2023-04-24T01:51:24;3.80;;;3.50;;
37097;SDS011;63608;49.572;12.348;2023-04-24T01:53:27;3.93;;;3.53;;
37097;SDS011;63608;49.572;12.348;2023-04-24T01:55:31;3.80;;;3.60;;
37097;SDS011;63608;49.572;12.348;2023-04-24T01:57:34;3.63;;;3.40;;
37097;SDS011;63608;49.572;12.348;2023-04-24T01:59:37;3.90;;;3.30;;
37097;SDS011;63608;49.572;12.348;2023-04-24T02:01:42;3.40;;;3.20;;
37097;SDS011;63608;49.572;12.348;2023-04-24T02:03:44;3.30;;;3.10;;
37097;SDS011;63608;49.572;12.348;2023-04-24T02:05:47;3.43;;;3.23;;
37097;SDS011;63608;49.572;12.348;2023-04-24T02:07:50;3.77;;;3.57;;
37097;SDS011;63608;49.572;12.348;2023-04-24T02:09:52;3.80;;;3.50;;
37097;SDS011;63608;49.572;12.348;2023-04-24T02:11:58;3.80;;;3.50;;
37097;SDS011;63608;49.572;12.348;2023-04-24T02:14:02;5.33;;;4.80;;
37097;SDS011;63608;49.572;12.348;2023-04-24T02:16:05;4.30;;;3.93;;
37097;SDS011;63608;49.572;12.348;2023-04-24T02:18:08;4.03;;;3.73;;
37097;SDS011;63608;49.572;12.348;2023-04-24T02:20:13;4.33;;;4.03;;
37097;SDS011;63608;49.572;12.348;2023-04-24T02:22:16;4.07;;;3.77;;
37097;SDS011;63608;49.572;12.348;2023-04-24T02:24:18;4.10;;;3.80;;
37097;SDS011;63608;49.572;12.348;2023-04-24T02:26:21;3.83;;;3.40;;
37097;SDS011;63608;49.572;12.348;2023-04-24T02:28:25;3.93;;;3.63;;
37097;SDS011;63608;49.572;12.348;2023-04-24T02:30:28;3.50;;;3.30;;
37097;SDS011;63608;49.572;12.348;2023-04-24T02:32:32;4.30;;;3.90;;
37097;SDS011;63608;49.572;12.348;2023-04-24T02:34:35;3.80;;;3.60;;
37097;SDS011;63608;49.572;12.348;2023-04-24T02:36:38;4.53;;;4.23;;
37097;SDS011;63608;49.572;12.348;2023-04-24T02:38:41;6.03;;;3.70;;
37097;SDS011;63608;49.572;12.348;2023-04-24T02:40:44;6.47;;;3.70;;
37097;SDS011;63608;49.572;12.348;2023-04-24T02:42:47;3.90;;;3.70;;
37097;SDS011;63608;49.572;12.348;2023-04-24T02:44:56;4.47;;;4.17;;
37097;SDS011;63608;49.572;12.348;2023-04-24T02:46:59;4.47;;;4.17;;
37097;SDS011;63608;49.572;12.348;2023-04-24T02:49:06;4.57;;;4.17;;
37097;SDS011;63608;49.572;12.348;2023-04-24T02:51:10;4.50;;;4.10;;
37097;SDS011;63608;49.572;12.348;2023-04-24T02:53:13;4.77;;;4.47;;
37097;SDS011;63608;49.572;12.348;2023-04-24T02:55:16;4.73;;;4.43;;
37097;SDS011;63608;49.572;12.348;2023-04-24T02:57:21;4.70;;;4.20;;
37097;SDS011;63608;49.572;12.348;2023-04-24T02:59:26;10.53;;;4.83;;
37097;SDS011;63608;49.572;12.348;2023-04-24T03:01:31;5.40;;;4.90;;
37097;SDS011;63608;49.572;12.348;2023-04-24T03:03:34;4.63;;;4.23;;
37097;SDS011;63608;49.572;12.348;2023-04-24T03:05:36;5.43;;;4.93;;
37097;SDS011;63608;49.572;12.348;2023-04-24T03:07:40;5.40;;;4.13;;
37097;SDS011;63608;49.572;12.348;2023-04-24T03:09:43;4.93;;;4.53;;
37097;SDS011;63608;49.572;12.348;2023-04-24T03:11:46;4.50;;;4.20;;
37097;SDS011;63608;49.572;12.348;2023-04-24T03:13:49;5.23;;;4.67;;
37097;SDS011;63608;49.572;12.348;2023-04-24T03:15:52;5.00;;;4.60;;
37097;SDS011;63608;49.572;12.348;2023-04-24T03:17:57;4.33;;;3.93;;
37097;SDS011;63608;49.572;12.348;2023-04-24T03:20:00;4.73;;;4.43;;
37097;SDS011;63608;49.572;12.348;2023-04-24T03:22:05;4.53;;;4.20;;
37097;SDS011;63608;49.572;12.348;2023-04-24T03:24:12;5.17;;;4.33;;
37097;SDS011;63608;49.572;12.348;2023-04-24T03:26:20;4.30;;;4.00;;
37097;SDS011;63608;49.572;12.348;2023-04-24T03:28:23;3.87;;;3.63;;
37097;SDS011;63608;49.572;12.348;2023-04-24T03:30:26;4.53;;;4.13;;
37097;SDS011;63608;49.572;12.348;2023-04-24T03:32:28;4.40;;;4.10;;
37097;SDS011;63608;49.572;12.348;2023-04-24T03:34:33;4.70;;;4.23;;
37097;SDS011;63608;49.572;12.348;2023-04-24T03:36:36;4.60;;;4.30;;
37097;SDS011;63608;49.572;12.348;2023-04-24T03:38:39;4.50;;;4.10;;
37097;SDS011;63608;49.572;12.348;2023-04-24T03:40:43;4.23;;;3.93;;
37097;SDS011;63608;49.572;12.348;2023-04-24T03:42:45;4.80;;;4.50;;
37097;SDS011;63608;49.572;12.348;2023-04-24T03:44:49;4.93;;;4.53;;
37097;SDS011;63608;49.572;12.348;2023-04-24T03:46:57;4.80;;;4.50;;
37097;SDS011;63608;49.572;12.348;2023-04-24T03:49:00;5.50;;;5.00;;
37097;SDS011;63608;49.572;12.348;2023-04-24T03:51:06;4.73;;;4.33;;
37097;SDS011;63608;49.572;12.348;2023-04-24T03:53:12;4.47;;;4.17;;
37097;SDS011;63608;49.572;12.348;2023-04-24T03:55:16;4.47;;;4.17;;
37097;SDS011;63608;49.572;12.348;2023-04-24T03:57:20;4.50;;;4.20;;
37097;SDS011;63608;49.572;12.348;2023-04-24T03:59:24;6.30;;;4.10;;
37097;SDS011;63608;49.572;12.348;2023-04-24T04:01:27;4.00;;;3.80;;
37097;SDS011;63608;49.572;12.348;2023-04-24T04:03:31;4.10;;;3.80;;
37097;SDS011;63608;49.572;12.348;2023-04-24T04:05:35;3.87;;;3.67;;
37097;SDS011;63608;49.572;12.348;2023-04-24T04:07:39;4.10;;;3.80;;
37097;SDS011;63608;49.572;12.348;2023-04-24T04:09:41;3.90;;;3.70;;
37097;SDS011;63608;49.572;12.348;2023-04-24T04:11:44;4.80;;;4.50;;
37097;SDS011;63608;49.572;12.348;2023-04-24T04:13:50;4.80;;;4.40;;
37097;SDS011;63608;49.572;12.348;2023-04-24T04:15:54;5.03;;;4.63;;
37097;SDS011;63608;49.572;12.348;2023-04-24T04:17:57;4.50;;;4.20;;
37097;SDS011;63608;49.572;12.348;2023-04-24T04:19:59;5.23;;;4.83;;
37097;SDS011;63608;49.572;12.348;2023-04-24T04:22:05;6.20;;;4.67;;
37097;SDS011;63608;49.572;12.348;2023-04-24T04:24:10;4.30;;;4.00;;
37097;SDS011;63608;49.572;12.348;2023-04-24T04:26:12;4.30;;;4.00;;
37097;SDS011;63608;49.572;12.348;2023-04-24T04:28:15;4.63;;;4.30;;
37097;SDS011;63608;49.572;12.348;2023-04-24T04:30:21;6.60;;;5.10;;
37097;SDS011;63608;49.572;12.348;2023-04-24T04:32:24;7.90;;;5.20;;
37097;SDS011;63608;49.572;12.348;2023-04-24T04:34:26;5.70;;;5.27;;
37097;SDS011;63608;49.572;12.348;2023-04-24T04:36:30;6.13;;;5.50;;
37097;SDS011;63608;49.572;12.348;2023-04-24T04:38:36;6.37;;;5.23;;
37097;SDS011;63608;49.572;12.348;2023-04-24T04:40:42;6.83;;;6.17;;
37097;SDS011;63608;49.572;12.348;2023-04-24T04:42:45;6.10;;;5.60;;
37097;SDS011;63608;49.572;12.348;2023-04-24T04:44:49;6.20;;;5.70;;
37097;SDS011;63608;49.572;12.348;2023-04-24T04:46:54;5.53;;;5.10;;
37097;SDS011;63608;49.572;12.348;2023-04-24T04:48:57;5.90;;;5.50;;
37097;SDS011;63608;49.572;12.348;2023-04-24T04:51:00;6.97;;;6.33;;
37097;SDS011;63608;49.572;12.348;2023-04-24T04:53:03;6.00;;;5.50;;
37097;SDS011;63608;49.572;12.348;2023-04-24T04:55:09;6.10;;;5.67;;
37097;SDS011;63608;49.572;12.348;2023-04-24T04:57:15;6.80;;;6.07;;
37097;SDS011;63608;49.572;12.348;2023-04-24T04:59:19;7.33;;;5.87;;
37097;SDS011;63608;49.572;12.348;2023-04-24T05:01:21;6.60;;;6.10;;
37097;SDS011;63608;49.572;12.348;2023-04-24T05:03:25;6.33;;;5.83;;
37097;SDS011;63608;49.572;12.348;2023-04-24T05:05:30;6.50;;;6.00;;
37097;SDS011;63608;49.572;12.348;2023-04-24T05:07:33;5.50;;;5.10;;
37097;SDS011;63608;49.572;12.348;2023-04-24T05:09:35;6.30;;;5.80;;
37097;SDS011;63608;49.572;12.348;2023-04-24T05:11:45;6.23;;;5.67;;
37097;SDS011;63608;49.572;12.348;2023-04-24T05:13:49;7.30;;;6.00;;
37097;SDS011;63608;49.572;12.348;2023-04-24T05:15:53;5.80;;;5.40;;
37097;SDS011;63608;49.572;12.348;2023-04-24T05:17:56;7.13;;;6.43;;
37097;SDS011;63608;49.572;12.348;2023-04-24T05:19:59;6.73;;;6.03;;
37097;SDS011;63608;49.572;12.348;2023-04-24T05:22:03;7.10;;;6.50;;
37097;SDS011;63608;49.572;12.348;2023-04-24T05:24:06;7.40;;;6.60;;
37097;SDS011;63608;49.572;12.348;2023-04-24T05:26:09;7.80;;;7.10;;
37097;SDS011;63608;49.572;12.348;2023-04-24T05:28:12;7.60;;;6.90;;
37097;SDS011;63608;49.572;12.348;2023-04-24T05:30:19;7.80;;;7.10;;
37097;SDS011;63608;49.572;12.348;2023-04-24T05:32:22;7.67;;;7.07;;
37097;SDS011;63608;49.572;12.348;2023-04-24T05:34:27;7.07;;;6.47;;
37097;SDS011;63608;49.572;12.348;2023-04-24T05:36:29;7.37;;;6.67;;
37097;SDS011;63608;49.572;12.348;2023-04-24T05:38:32;7.60;;;6.90;;
37097;SDS011;63608;49.572;12.348;2023-04-24T05:40:42;8.50;;;7.60;;
37097;SDS011;63608;49.572;12.348;2023-04-24T05:42:45;7.60;;;6.87;;
37097;SDS011;63608;49.572;12.348;2023-04-24T05:44:48;7.20;;;6.60;;
37097;SDS011;63608;49.572;12.348;2023-04-24T05:46:55;6.67;;;6.13;;
37097;SDS011;63608;49.572;12.348;2023-04-24T05:49:02;6.70;;;6.20;;
37097;SDS011;63608;49.572;12.348;2023-04-24T05:51:10;7.50;;;6.80;;
37097;SDS011;63608;49.572;12.348;2023-04-24T05:53:13;7.83;;;7.10;;
37097;SDS011;63608;49.572;12.348;2023-04-24T05:55:15;7.80;;;7.10;;
37097;SDS011;63608;49.572;12.348;2023-04-24T05:57:19;7.40;;;6.80;;
37097;SDS011;63608;49.572;12.348;2023-04-24T05:59:23;8.10;;;7.40;;
37097;SDS011;63608;49.572;12.348;2023-04-24T06:01:26;7.67;;;7.03;;
37097;SDS011;63608;49.572;12.348;2023-04-24T06:03:31;8.30;;;7.50;;
37097;SDS011;63608;49.572;12.348;2023-04-24T06:05:34;8.77;;;7.87;;
37097;SDS011;63608;49.572;12.348;2023-04-24T06:07:37;8.20;;;7.40;;
37097;SDS011;63608;49.572;12.348;2023-04-24T06:09:40;6.77;;;6.27;;
37097;SDS011;63608;49.572;12.348;2023-04-24T06:11:43;7.90;;;7.10;;
37097;SDS011;63608;49.572;12.348;2023-04-24T06:13:46;8.03;;;7.33;;
37097;SDS011;63608;49.572;12.348;2023-04-24T06:15:48;7.00;;;6.40;;
37097;SDS011;63608;49.572;12.348;2023-04-24T06:17:51;7.67;;;6.97;;
37097;SDS011;63608;49.572;12.348;2023-04-24T06:19:56;10.20;;;8.00;;
37097;SDS011;63608;49.572;12.348;2023-04-24T06:22:04;7.80;;;7.10;;
37097;SDS011;63608;49.572;12.348;2023-04-24T06:24:10;8.90;;;8.00;;
37097;SDS011;63608;49.572;12.348;2023-04-24T06:26:14;7.73;;;7.03;;
37097;SDS011;63608;49.572;12.348;2023-04-24T06:28:16;7.93;;;6.63;;
37097;SDS011;63608;49.572;12.348;2023-04-24T06:30:19;8.73;;;7.30;;
37097;SDS011;63608;49.572;12.348;2023-04-24T06:32:22;8.17;;;7.47;;
37097;SDS011;63608;49.572;12.348;2023-04-24T06:34:25;8.17;;;7.47;;
37097;SDS011;63608;49.572;12.348;2023-04-24T06:36:29;7.30;;;6.60;;
37097;SDS011;63608;49.572;12.348;2023-04-24T06:38:35;8.30;;;7.50;;
37097;SDS011;63608;49.572;12.348;2023-04-24T06:40:37;8.53;;;7.73;;
37097;SDS011;63608;49.572;12.348;2023-04-24T06:42:40;8.67;;;7.80;;
37097;SDS011;63608;49.572;12.348;2023-04-24T06:44:47;9.20;;;8.30;;
37097;SDS011;63608;49.572;12.348;2023-04-24T06:46:49;8.10;;;7.30;;
37097;SDS011;63608;49.572;12.348;2023-04-24T06:48:54;7.97;;;7.27;;
37097;SDS011;63608;49.572;12.348;2023-04-24T06:50:57;8.63;;;7.53;;
37097;SDS011;63608;49.572;12.348;2023-04-24T06:53:05;7.77;;;7.07;;
37097;SDS011;63608;49.572;12.348;2023-04-24T06:55:11;8.67;;;7.80;;
37097;SDS011;63608;49.572;12.348;2023-04-24T06:57:15;7.87;;;7.20;;
37097;SDS011;63608;49.572;12.348;2023-04-24T06:59:18;8.23;;;7.43;;
37097;SDS011;63608;49.572;12.348;2023-04-24T07:01:21;7.50;;;6.70;;
37097;SDS011;63608;49.572;12.348;2023-04-24T07:03:28;7.87;;;7.17;;
37097;SDS011;63608;49.572;12.348;2023-04-24T07:05:30;7.33;;;6.63;;
37097;SDS011;63608;49.572;12.348;2023-04-24T07:07:35;7.83;;;7.13;;
37097;SDS011;63608;49.572;12.348;2023-04-24T07:09:40;7.30;;;6.60;;
37097;SDS011;63608;49.572;12.348;2023-04-24T07:11:44;6.70;;;6.10;;
37097;SDS011;63608;49.572;12.348;2023-04-24T07:13:47;6.17;;;5.60;;
37097;SDS011;63608;49.572;12.348;2023-04-24T07:15:53;6.70;;;6.10;;
37097;SDS011;63608;49.572;12.348;2023-04-24T07:17:57;6.70;;;6.07;;
37097;SDS011;63608;49.572;12.348;2023-04-24T07:20:00;6.73;;;6.13;;
37097;SDS011;63608;49.572;12.348;2023-04-24T07:22:04;5.73;;;5.33;;
37097;SDS011;63608;49.572;12.348;2023-04-24T07:24:07;6.50;;;6.00;;
37097;SDS011;63608;49.572;12.348;2023-04-24T07:26:12;8.10;;;5.70;;
37097;SDS011;63608;49.572;12.348;2023-04-24T07:28:15;5.50;;;5.00;;
37097;SDS011;63608;49.572;12.348;2023-04-24T07:30:21;6.03;;;5.53;;
37097;SDS011;63608;49.572;12.348;2023-04-24T07:32:25;5.80;;;5.40;;
37097;SDS011;63608;49.572;12.348;2023-04-24T07:34:28;5.50;;;5.00;;
37097;SDS011;63608;49.572;12.348;2023-04-24T07:36:30;5.03;;;4.63;;
37097;SDS011;63608;49.572;12.348;2023-04-24T07:38:33;5.50;;;5.10;;
37097;SDS011;63608;49.572;12.348;2023-04-24T07:40:35;5.23;;;4.83;;
37097;SDS011;63608;49.572;12.348;2023-04-24T07:42:40;5.10;;;4.70;;
37097;SDS011;63608;49.572;12.348;2023-04-24T07:44:45;5.10;;;4.60;;
37097;SDS011;63608;49.572;12.348;2023-04-24T07:46:52;4.50;;;4.20;;
37097;SDS011;63608;49.572;12.348;2023-04-24T07:49:02;5.13;;;4.20;;
37097;SDS011;63608;49.572;12.348;2023-04-24T07:51:07;4.70;;;4.30;;
37097;SDS011;63608;49.572;12.348;2023-04-24T07:53:15;4.67;;;4.37;;
37097;SDS011;63608;49.572;12.348;2023-04-24T07:55:18;6.03;;;4.83;;
37097;SDS011;63608;49.572;12.348;2023-04-24T07:57:21;5.73;;;5.13;;
37097;SDS011;63608;49.572;12.348;2023-04-24T07:59:25;5.17;;;4.67;;
37097;SDS011;63608;49.572;12.348;2023-04-24T08:01:28;6.17;;;5.30;;
37097;SDS011;63608;49.572;12.348;2023-04-24T08:03:32;4.73;;;4.40;;
37097;SDS011;63608;49.572;12.348;2023-04-24T08:05:35;4.10;;;3.90;;
37097;SDS011;63608;49.572;12.348;2023-04-24T08:07:40;4.60;;;4.03;;
37097;SDS011;63608;49.572;12.348;2023-04-24T08:09:46;4.47;;;4.07;;
37097;SDS011;63608;49.572;12.348;2023-04-24T08:11:49;4.43;;;4.13;;
37097;SDS011;63608;49.572;12.348;2023-04-24T08:13:51;4.03;;;3.73;;
37097;SDS011;63608;49.572;12.348;2023-04-24T08:15:56;4.10;;;3.80;;
37097;SDS011;63608;49.572;12.348;2023-04-24T08:17:59;4.03;;;3.73;;
37097;SDS011;63608;49.572;12.348;2023-04-24T08:20:01;4.20;;;3.83;;
37097;SDS011;63608;49.572;12.348;2023-04-24T08:22:10;3.40;;;3.20;;
37097;SDS011;63608;49.572;12.348;2023-04-24T08:24:13;3.77;;;3.57;;
37097;SDS011;63608;49.572;12.348;2023-04-24T08:26:16;3.90;;;3.50;;
37097;SDS011;63608;49.572;12.348;2023-04-24T08:28:19;3.57;;;3.37;;
37097;SDS011;63608;49.572;12.348;2023-04-24T08:30:21;3.77;;;3.00;;
37097;SDS011;63608;49.572;12.348;2023-04-24T08:32:26;2.10;;;2.00;;
37097;SDS011;63608;49.572;12.348;2023-04-24T08:34:31;2.40;;;2.20;;
37097;SDS011;63608;49.572;12.348;2023-04-24T08:36:33;1.93;;;1.83;;
37097;SDS011;63608;49.572;12.348;2023-04-24T08:38:36;2.00;;;1.90;;
37097;SDS011;63608;49.572;12.348;2023-04-24T08:40:39;1.83;;;1.73;;
37097;SDS011;63608;49.572;12.348;2023-04-24T08:42:41;1.70;;;1.60;;
37097;SDS011;63608;49.572;12.348;2023-04-24T08:44:44;1.80;;;1.70;;
37097;SDS011;63608;49.572;12.348;2023-04-24T08:46:47;1.87;;;1.77;;
37097;SDS011;63608;49.572;12.348;2023-04-24T08:48:53;6.60;;;5.93;;
37097;SDS011;63608;49.572;12.348;2023-04-24T08:50:56;1.70;;;1.60;;
37097;SDS011;63608;49.572;12.348;2023-04-24T08:53:00;1.60;;;1.50;;
37097;SDS011;63608;49.572;12.348;2023-04-24T08:55:03;1.80;;;1.70;;
37097;SDS011;63608;49.572;12.348;2023-04-24T08:57:05;2.50;;;1.67;;
37097;SDS011;63608;49.572;12.348;2023-04-24T08:59:11;2.00;;;1.90;;
37097;SDS011;63608;49.572;12.348;2023-04-24T09:01:14;1.90;;;1.73;;
37097;SDS011;63608;49.572;12.348;2023-04-24T09:03:16;2.50;;;2.40;;
37097;SDS011;63608;49.572;12.348;2023-04-24T09:05:20;2.70;;;1.70;;
37097;SDS011;63608;49.572;12.348;2023-04-24T09:07:24;1.80;;;1.70;;
37097;SDS011;63608;49.572;12.348;2023-04-24T09:09:26;1.73;;;1.63;;
37097;SDS011;63608;49.572;12.348;2023-04-24T09:11:32;1.70;;;1.60;;
37097;SDS011;63608;49.572;12.348;2023-04-24T09:13:34;1.77;;;1.67;;
37097;SDS011;63608;49.572;12.348;2023-04-24T09:15:36;1.83;;;1.73;;
37097;SDS011;63608;49.572;12.348;2023-04-24T09:17:38;1.80;;;1.70;;
37097;SDS011;63608;49.572;12.348;2023-04-24T09:19:41;1.80;;;1.70;;
37097;SDS011;63608;49.572;12.348;2023-04-24T09:21:46;1.70;;;1.60;;
37097;SDS011;63608;49.572;12.348;2023-04-24T09:23:57;1.70;;;1.60;;
37097;SDS011;63608;49.572;12.348;2023-04-24T09:26:01;2.70;;;1.73;;
37097;SDS011;63608;49.572;12.348;2023-04-24T09:28:06;1.83;;;1.43;;
37097;SDS011;63608;49.572;12.348;2023-04-24T09:30:08;2.13;;;1.93;;
37097;SDS011;63608;49.572;12.348;2023-04-24T09:32:20;1.53;;;1.43;;
37097;SDS011;63608;49.572;12.348;2023-04-24T09:34:25;3.73;;;1.70;;
37097;SDS011;63608;49.572;12.348;2023-04-24T09:36:28;1.70;;;1.60;;
37097;SDS011;63608;49.572;12.348;2023-04-24T09:38:35;1.90;;;1.80;;
37097;SDS011;63608;49.572;12.348;2023-04-24T09:40:37;1.70;;;1.60;;
37097;SDS011;63608;49.572;12.348;2023-04-24T09:42:44;1.70;;;1.60;;
37097;SDS011;63608;49.572;12.348;2023-04-24T09:44:48;3.10;;;1.60;;
37097;SDS011;63608;49.572;12.348;2023-04-24T09:46:53;2.20;;;1.77;;
37097;SDS011;63608;49.572;12.348;2023-04-24T09:48:56;1.80;;;1.70;;
37097;SDS011;63608;49.572;12.348;2023-04-24T09:50:59;1.80;;;1.70;;
37097;SDS011;63608;49.572;12.348;2023-04-24T09:53:02;1.60;;;1.50;;
37097;SDS011;63608;49.572;12.348;2023-04-24T09:55:11;7.10;;;1.83;;
37097;SDS011;63608;49.572;12.348;2023-04-24T09:57:15;1.70;;;1.60;;
37097;SDS011;63608;49.572;12.348;2023-04-24T09:59:17;1.80;;;1.70;;
37097;SDS011;63608;49.572;12.348;2023-04-24T10:01:28;1.80;;;1.43;;
37097;SDS011;63608;49.572;12.348;2023-04-24T10:03:33;1.90;;;1.80;;
37097;SDS011;63608;49.572;12.348;2023-04-24T10:05:36;1.90;;;1.80;;
37097;SDS011;63608;49.572;12.348;2023-04-24T10:07:38;1.93;;;1.83;;
37097;SDS011;63608;49.572;12.348;2023-04-24T10:09:41;1.77;;;1.67;;
37097;SDS011;63608;49.572;12.348;2023-04-24T10:11:45;1.80;;;1.70;;
37097;SDS011;63608;49.572;12.348;2023-04-24T10:13:48;3.57;;;1.90;;
37097;SDS011;63608;49.572;12.348;2023-04-24T10:15:50;4.07;;;3.77;;
37097;SDS011;63608;49.572;12.348;2023-04-24T10:17:52;2.60;;;2.40;;
37097;SDS011;63608;49.572;12.348;2023-04-24T10:19:55;2.63;;;1.90;;
37097;SDS011;63608;49.572;12.348;2023-04-24T10:21:57;2.00;;;1.90;;
37097;SDS011;63608;49.572;12.348;2023-04-24T10:24:00;2.10;;;2.00;;
37097;SDS011;63608;49.572;12.348;2023-04-24T10:26:03;1.90;;;1.80;;
37097;SDS011;63608;49.572;12.348;2023-04-24T10:28:07;2.20;;;2.10;;
37097;SDS011;63608;49.572;12.348;2023-04-24T10:30:11;21.53;;;16.53;;
37097;SDS011;63608;49.572;12.348;2023-04-24T10:32:14;8.30;;;6.30;;
37097;SDS011;63608;49.572;12.348;2023-04-24T10:34:16;3.90;;;3.30;;
37097;SDS011;63608;49.572;12.348;2023-04-24T10:36:20;4.10;;;3.80;;
37097;SDS011;63608;49.572;12.348;2023-04-24T10:38:25;2.77;;;2.57;;
37097;SDS011;63608;49.572;12.348;2023-04-24T10:40:30;2.00;;;1.90;;
37097;SDS011;63608;49.572;12.348;2023-04-24T10:42:32;2.23;;;2.13;;
37097;SDS011;63608;49.572;12.348;2023-04-24T10:44:37;2.20;;;2.00;;
37097;SDS011;63608;49.572;12.348;2023-04-24T10:46:39;3.13;;;2.93;;
37097;SDS011;63608;49.572;12.348;2023-04-24T10:48:44;3.03;;;2.83;;
37097;SDS011;63608;49.572;12.348;2023-04-24T10:50:54;4.43;;;4.13;;
37097;SDS011;63608;49.572;12.348;2023-04-24T10:53:04;2.73;;;2.63;;
37097;SDS011;63608;49.572;12.348;2023-04-24T10:55:08;8.03;;;7.23;;
37097;SDS011;63608;49.572;12.348;2023-04-24T10:57:26;2.30;;;2.20;;
37097;SDS011;63608;49.572;12.348;2023-04-24T10:59:35;2.63;;;2.50;;
37097;SDS011;63608;49.572;12.348;2023-04-24T11:01:39;2.17;;;2.07;;
37097;SDS011;63608;49.572;12.348;2023-04-24T11:03:41;3.43;;;3.23;;
37097;SDS011;63608;49.572;12.348;2023-04-24T11:05:54;2.10;;;2.00;;
37097;SDS011;63608;49.572;12.348;2023-04-24T11:08:10;1.87;;;1.77;;
37097;SDS011;63608;49.572;12.348;2023-04-24T11:10:21;3.10;;;2.60;;
37097;SDS011;63608;49.572;12.348;2023-04-24T11:12:27;2.77;;;2.53;;
37097;SDS011;63608;49.572;12.348;2023-04-24T11:14:29;2.17;;;2.07;;
37097;SDS011;63608;49.572;12.348;2023-04-24T11:16:33;1.93;;;1.83;;
37097;SDS011;63608;49.572;12.348;2023-04-24T11:18:38;2.40;;;2.20;;
37097;SDS011;63608;49.572;12.348;2023-04-24T11:20:41;2.10;;;2.00;;
37097;SDS011;63608;49.572;12.348;2023-04-24T11:22:44;1.90;;;1.80;;
37097;SDS011;63608;49.572;12.348;2023-04-24T11:24:49;2.00;;;1.90;;
37097;SDS011;63608;49.572;12.348;2023-04-24T11:26:52;2.00;;;1.90;;
37097;SDS011;63608;49.572;12.348;2023-04-24T11:28:55;1.97;;;1.87;;
37097;SDS011;63608;49.572;12.348;2023-04-24T11:33:39;2.20;;;2.10;;
37097;SDS011;63608;49.572;12.348;2023-04-24T11:35:41;1.90;;;1.80;;
37097;SDS011;63608;49.572;12.348;2023-04-24T11:37:45;1.90;;;1.80;;
37097;SDS011;63608;49.572;12.348;2023-04-24T11:39:50;2.10;;;2.00;;
37097;SDS011;63608;49.572;12.348;2023-04-24T11:41:53;2.30;;;2.20;;
37097;SDS011;63608;49.572;12.348;2023-04-24T11:44:05;2.10;;;2.00;;
37097;SDS011;63608;49.572;12.348;2023-04-24T11:46:08;2.17;;;1.90;;
37097;SDS011;63608;49.572;12.348;2023-04-24T11:48:12;2.90;;;2.80;;
37097;SDS011;63608;49.572;12.348;2023-04-24T11:50:21;2.23;;;2.13;;
37097;SDS011;63608;49.572;12.348;2023-04-24T11:52:26;2.13;;;1.93;;
37097;SDS011;63608;49.572;12.348;2023-04-24T11:54:29;2.00;;;1.90;;
37097;SDS011;63608;49.572;12.348;2023-04-24T11:56:31;3.47;;;3.20;;
37097;SDS011;63608;49.572;12.348;2023-04-24T11:58:34;2.40;;;2.30;;
37097;SDS011;63608;49.572;12.348;2023-04-24T12:00:37;2.20;;;2.10;;
37097;SDS011;63608;49.572;12.348;2023-04-24T12:02:39;2.30;;;2.07;;
37097;SDS011;63608;49.572;12.348;2023-04-24T12:04:42;2.00;;;1.87;;
37097;SDS011;63608;49.572;12.348;2023-04-24T12:07:00;1.87;;;1.77;;
37097;SDS011;63608;49.572;12.348;2023-04-24T12:09:02;1.70;;;1.60;;
37097;SDS011;63608;49.572;12.348;2023-04-24T12:11:05;1.80;;;1.70;;
37097;SDS011;63608;49.572;12.348;2023-04-24T12:13:08;1.93;;;1.80;;
37097;SDS011;63608;49.572;12.348;2023-04-24T12:15:11;4.30;;;1.50;;
37097;SDS011;63608;49.572;12.348;2023-04-24T12:17:14;1.90;;;1.80;;
37097;SDS011;63608;49.572;12.348;2023-04-24T12:19:17;1.80;;;1.70;;